sensor_id;sensor_type;location;lat;lon;timestamp;P1;durP1;ratioP1;P2;durP2;ratioP2
18659;SDS011;9459;50.254;19.014;2023-05-07T00:00:45;19.30;;;15.43;;
18659;SDS011;9459;50.254;19.014;2023-05-07T00:03:20;17.80;;;14.98;;
18659;SDS011;9459;50.254;19.014;2023-05-07T00:05:49;21.25;;;17.88;;
18659;SDS011;9459;50.254;19.014;2023-05-07T00:08:21;21.20;;;17.42;;
18659;SDS011;9459;50.254;19.014;2023-05-07T00:10:49;21.15;;;17.73;;
18659;SDS011;9459;50.254;19.014;2023-05-07T00:13:18;21.38;;;17.40;;
18659;SDS011;9459;50.254;19.014;2023-05-07T00:15:47;20.55;;;15.93;;
18659;SDS011;9459;50.254;19.014;2023-05-07T00:18:15;22.30;;;17.27;;
18659;SDS011;9459;50.254;19.014;2023-05-07T00:20:47;24.55;;;19.25;;
18659;SDS011;9459;50.254;19.014;2023-05-07T00:23:16;21.02;;;16.05;;
18659;SDS011;9459;50.254;19.014;2023-05-07T00:25:46;20.08;;;14.00;;
18659;SDS011;9459;50.254;19.014;2023-05-07T00:28:15;18.10;;;12.95;;
18659;SDS011;9459;50.254;19.014;2023-05-07T00:30:43;19.10;;;13.15;;
18659;SDS011;9459;50.254;19.014;2023-05-07T00:33:12;19.50;;;12.77;;
18659;SDS011;9459;50.254;19.014;2023-05-07T00:35:41;17.42;;;12.98;;
18659;SDS011;9459;50.254;19.014;2023-05-07T00:38:10;17.13;;;11.70;;
18659;SDS011;9459;50.254;19.014;2023-05-07T00:40:38;15.85;;;10.73;;
18659;SDS011;9459;50.254;19.014;2023-05-07T00:43:08;14.48;;;10.05;;
18659;SDS011;9459;50.254;19.014;2023-05-07T00:45:38;15.38;;;10.30;;
18659;SDS011;9459;50.254;19.014;2023-05-07T00:48:06;13.82;;;9.63;;
18659;SDS011;9459;50.254;19.014;2023-05-07T00:50:35;16.30;;;11.23;;
18659;SDS011;9459;50.254;19.014;2023-05-07T00:53:04;15.15;;;10.38;;
18659;SDS011;9459;50.254;19.014;2023-05-07T00:55:32;15.55;;;11.40;;
18659;SDS011;9459;50.254;19.014;2023-05-07T00:58:02;14.68;;;11.10;;
18659;SDS011;9459;50.254;19.014;2023-05-07T01:00:33;17.02;;;10.88;;
18659;SDS011;9459;50.254;19.014;2023-05-07T01:03:02;16.48;;;11.10;;
18659;SDS011;9459;50.254;19.014;2023-05-07T01:05:31;14.43;;;11.15;;
18659;SDS011;9459;50.254;19.014;2023-05-07T01:08:01;17.88;;;11.25;;
18659;SDS011;9459;50.254;19.014;2023-05-07T01:10:30;17.13;;;10.82;;
18659;SDS011;9459;50.254;19.014;2023-05-07T01:12:58;15.35;;;10.18;;
18659;SDS011;9459;50.254;19.014;2023-05-07T01:15:28;17.48;;;10.15;;
18659;SDS011;9459;50.254;19.014;2023-05-07T01:17:57;15.93;;;10.52;;
18659;SDS011;9459;50.254;19.014;2023-05-07T01:20:27;15.07;;;9.60;;
18659;SDS011;9459;50.254;19.014;2023-05-07T01:22:57;14.10;;;10.02;;
18659;SDS011;9459;50.254;19.014;2023-05-07T01:25:26;13.05;;;9.40;;
18659;SDS011;9459;50.254;19.014;2023-05-07T01:27:54;13.80;;;9.40;;
18659;SDS011;9459;50.254;19.014;2023-05-07T01:30:23;10.88;;;8.70;;
18659;SDS011;9459;50.254;19.014;2023-05-07T01:32:52;13.77;;;9.93;;
18659;SDS011;9459;50.254;19.014;2023-05-07T01:35:25;13.70;;;9.07;;
18659;SDS011;9459;50.254;19.014;2023-05-07T01:37:58;12.05;;;8.55;;
18659;SDS011;9459;50.254;19.014;2023-05-07T01:40:27;13.32;;;8.55;;
18659;SDS011;9459;50.254;19.014;2023-05-07T01:42:55;12.05;;;8.38;;
18659;SDS011;9459;50.254;19.014;2023-05-07T01:45:25;11.20;;;7.43;;
18659;SDS011;9459;50.254;19.014;2023-05-07T01:47:53;9.88;;;7.65;;
18659;SDS011;9459;50.254;19.014;2023-05-07T01:50:22;8.60;;;7.05;;
18659;SDS011;9459;50.254;19.014;2023-05-07T01:52:51;10.10;;;7.45;;
18659;SDS011;9459;50.254;19.014;2023-05-07T01:55:21;10.93;;;7.85;;
18659;SDS011;9459;50.254;19.014;2023-05-07T01:57:50;10.05;;;7.78;;
18659;SDS011;9459;50.254;19.014;2023-05-07T02:00:19;10.60;;;7.95;;
18659;SDS011;9459;50.254;19.014;2023-05-07T02:02:48;9.85;;;7.25;;
18659;SDS011;9459;50.254;19.014;2023-05-07T02:05:18;8.63;;;6.90;;
18659;SDS011;9459;50.254;19.014;2023-05-07T02:07:46;7.40;;;6.60;;
18659;SDS011;9459;50.254;19.014;2023-05-07T02:10:15;8.85;;;6.72;;
18659;SDS011;9459;50.254;19.014;2023-05-07T02:12:44;7.10;;;5.60;;
18659;SDS011;9459;50.254;19.014;2023-05-07T02:15:13;6.85;;;5.97;;
18659;SDS011;9459;50.254;19.014;2023-05-07T02:20:30;9.48;;;6.10;;
18659;SDS011;9459;50.254;19.014;2023-05-07T02:22:59;6.22;;;5.45;;
18659;SDS011;9459;50.254;19.014;2023-05-07T02:25:27;6.65;;;5.53;;
18659;SDS011;9459;50.254;19.014;2023-05-07T02:27:58;6.93;;;5.32;;
18659;SDS011;9459;50.254;19.014;2023-05-07T02:30:27;7.05;;;5.43;;
18659;SDS011;9459;50.254;19.014;2023-05-07T02:32:56;6.32;;;4.90;;
18659;SDS011;9459;50.254;19.014;2023-05-07T02:35:24;8.23;;;4.97;;
18659;SDS011;9459;50.254;19.014;2023-05-07T02:37:53;6.70;;;4.63;;
18659;SDS011;9459;50.254;19.014;2023-05-07T02:40:22;5.10;;;4.13;;
18659;SDS011;9459;50.254;19.014;2023-05-07T02:42:51;5.20;;;3.70;;
18659;SDS011;9459;50.254;19.014;2023-05-07T02:45:21;4.47;;;3.78;;
18659;SDS011;9459;50.254;19.014;2023-05-07T02:47:49;5.25;;;4.18;;
18659;SDS011;9459;50.254;19.014;2023-05-07T02:50:18;4.07;;;3.38;;
18659;SDS011;9459;50.254;19.014;2023-05-07T02:52:47;6.50;;;4.90;;
18659;SDS011;9459;50.254;19.014;2023-05-07T02:55:16;3.63;;;3.13;;
18659;SDS011;9459;50.254;19.014;2023-05-07T02:57:44;4.53;;;3.38;;
18659;SDS011;9459;50.254;19.014;2023-05-07T03:00:13;5.35;;;3.08;;
18659;SDS011;9459;50.254;19.014;2023-05-07T03:02:44;4.43;;;3.70;;
18659;SDS011;9459;50.254;19.014;2023-05-07T03:05:13;3.33;;;3.03;;
18659;SDS011;9459;50.254;19.014;2023-05-07T03:07:41;3.65;;;2.85;;
18659;SDS011;9459;50.254;19.014;2023-05-07T03:10:12;3.70;;;2.80;;
18659;SDS011;9459;50.254;19.014;2023-05-07T03:12:40;5.00;;;3.45;;
18659;SDS011;9459;50.254;19.014;2023-05-07T03:15:10;3.45;;;2.85;;
18659;SDS011;9459;50.254;19.014;2023-05-07T03:17:39;4.80;;;3.40;;
18659;SDS011;9459;50.254;19.014;2023-05-07T03:20:10;3.70;;;3.13;;
18659;SDS011;9459;50.254;19.014;2023-05-07T03:22:40;3.38;;;3.00;;
18659;SDS011;9459;50.254;19.014;2023-05-07T03:25:09;4.70;;;3.13;;
18659;SDS011;9459;50.254;19.014;2023-05-07T03:27:39;3.55;;;2.50;;
18659;SDS011;9459;50.254;19.014;2023-05-07T03:30:09;5.78;;;2.70;;
18659;SDS011;9459;50.254;19.014;2023-05-07T03:32:39;3.63;;;2.50;;
18659;SDS011;9459;50.254;19.014;2023-05-07T03:35:08;3.47;;;2.58;;
18659;SDS011;9459;50.254;19.014;2023-05-07T03:37:37;3.15;;;2.13;;
18659;SDS011;9459;50.254;19.014;2023-05-07T03:40:07;3.65;;;2.50;;
18659;SDS011;9459;50.254;19.014;2023-05-07T03:42:37;2.67;;;2.20;;
18659;SDS011;9459;50.254;19.014;2023-05-07T03:45:07;3.20;;;2.33;;
18659;SDS011;9459;50.254;19.014;2023-05-07T03:47:36;4.30;;;2.50;;
18659;SDS011;9459;50.254;19.014;2023-05-07T03:50:05;3.28;;;2.53;;
18659;SDS011;9459;50.254;19.014;2023-05-07T03:52:35;4.32;;;2.58;;
18659;SDS011;9459;50.254;19.014;2023-05-07T03:55:04;3.72;;;2.65;;
18659;SDS011;9459;50.254;19.014;2023-05-07T03:57:33;4.50;;;3.17;;
18659;SDS011;9459;50.254;19.014;2023-05-07T04:00:02;3.80;;;2.45;;
18659;SDS011;9459;50.254;19.014;2023-05-07T04:02:32;2.88;;;2.55;;
18659;SDS011;9459;50.254;19.014;2023-05-07T04:05:01;4.95;;;2.88;;
18659;SDS011;9459;50.254;19.014;2023-05-07T04:07:30;3.35;;;2.67;;
18659;SDS011;9459;50.254;19.014;2023-05-07T04:10:00;3.17;;;2.10;;
18659;SDS011;9459;50.254;19.014;2023-05-07T04:12:29;2.75;;;2.25;;
18659;SDS011;9459;50.254;19.014;2023-05-07T04:14:57;4.03;;;2.63;;
18659;SDS011;9459;50.254;19.014;2023-05-07T04:17:26;2.75;;;2.05;;
18659;SDS011;9459;50.254;19.014;2023-05-07T04:19:55;3.72;;;2.45;;
18659;SDS011;9459;50.254;19.014;2023-05-07T04:22:23;2.72;;;2.08;;
18659;SDS011;9459;50.254;19.014;2023-05-07T04:24:51;4.00;;;2.40;;
18659;SDS011;9459;50.254;19.014;2023-05-07T04:27:21;3.90;;;2.60;;
18659;SDS011;9459;50.254;19.014;2023-05-07T04:29:50;3.97;;;2.63;;
18659;SDS011;9459;50.254;19.014;2023-05-07T04:32:22;4.93;;;2.78;;
18659;SDS011;9459;50.254;19.014;2023-05-07T04:34:52;3.90;;;2.70;;
18659;SDS011;9459;50.254;19.014;2023-05-07T04:37:20;4.30;;;2.85;;
18659;SDS011;9459;50.254;19.014;2023-05-07T04:39:49;4.25;;;2.80;;
18659;SDS011;9459;50.254;19.014;2023-05-07T04:42:17;4.45;;;2.80;;
18659;SDS011;9459;50.254;19.014;2023-05-07T04:44:48;3.38;;;2.30;;
18659;SDS011;9459;50.254;19.014;2023-05-07T04:47:20;3.60;;;2.65;;
18659;SDS011;9459;50.254;19.014;2023-05-07T04:49:49;4.30;;;2.78;;
18659;SDS011;9459;50.254;19.014;2023-05-07T04:52:18;3.50;;;2.33;;
18659;SDS011;9459;50.254;19.014;2023-05-07T04:54:47;3.92;;;2.45;;
18659;SDS011;9459;50.254;19.014;2023-05-07T04:57:15;4.72;;;2.40;;
18659;SDS011;9459;50.254;19.014;2023-05-07T04:59:45;4.53;;;2.85;;
18659;SDS011;9459;50.254;19.014;2023-05-07T05:02:14;3.47;;;3.03;;
18659;SDS011;9459;50.254;19.014;2023-05-07T05:04:46;4.80;;;3.38;;
18659;SDS011;9459;50.254;19.014;2023-05-07T05:07:14;5.05;;;4.20;;
18659;SDS011;9459;50.254;19.014;2023-05-07T05:09:43;4.85;;;3.97;;
18659;SDS011;9459;50.254;19.014;2023-05-07T05:12:11;4.60;;;3.45;;
18659;SDS011;9459;50.254;19.014;2023-05-07T05:14:40;3.75;;;3.00;;
18659;SDS011;9459;50.254;19.014;2023-05-07T05:17:09;4.68;;;3.40;;
18659;SDS011;9459;50.254;19.014;2023-05-07T05:19:39;3.75;;;2.50;;
18659;SDS011;9459;50.254;19.014;2023-05-07T05:22:08;4.00;;;2.50;;
18659;SDS011;9459;50.254;19.014;2023-05-07T05:24:36;3.30;;;2.60;;
18659;SDS011;9459;50.254;19.014;2023-05-07T05:27:05;3.03;;;2.20;;
18659;SDS011;9459;50.254;19.014;2023-05-07T05:29:34;3.38;;;2.55;;
18659;SDS011;9459;50.254;19.014;2023-05-07T05:32:02;2.80;;;2.30;;
18659;SDS011;9459;50.254;19.014;2023-05-07T05:34:31;3.03;;;2.22;;
18659;SDS011;9459;50.254;19.014;2023-05-07T05:37:01;3.38;;;2.22;;
18659;SDS011;9459;50.254;19.014;2023-05-07T05:39:30;3.50;;;2.30;;
18659;SDS011;9459;50.254;19.014;2023-05-07T05:41:58;2.83;;;2.20;;
18659;SDS011;9459;50.254;19.014;2023-05-07T05:44:27;3.38;;;2.20;;
18659;SDS011;9459;50.254;19.014;2023-05-07T05:46:55;4.25;;;2.67;;
18659;SDS011;9459;50.254;19.014;2023-05-07T05:49:26;2.53;;;2.03;;
18659;SDS011;9459;50.254;19.014;2023-05-07T05:51:54;3.80;;;2.08;;
18659;SDS011;9459;50.254;19.014;2023-05-07T05:54:25;3.30;;;1.90;;
18659;SDS011;9459;50.254;19.014;2023-05-07T05:56:53;2.00;;;1.58;;
18659;SDS011;9459;50.254;19.014;2023-05-07T05:59:22;3.30;;;2.30;;
18659;SDS011;9459;50.254;19.014;2023-05-07T06:01:51;2.97;;;2.35;;
18659;SDS011;9459;50.254;19.014;2023-05-07T06:04:19;3.30;;;2.20;;
18659;SDS011;9459;50.254;19.014;2023-05-07T06:06:48;2.80;;;2.25;;
18659;SDS011;9459;50.254;19.014;2023-05-07T06:09:17;2.80;;;1.92;;
18659;SDS011;9459;50.254;19.014;2023-05-07T06:11:47;3.85;;;2.33;;
18659;SDS011;9459;50.254;19.014;2023-05-07T06:14:15;3.13;;;2.13;;
18659;SDS011;9459;50.254;19.014;2023-05-07T06:16:44;2.20;;;2.00;;
18659;SDS011;9459;50.254;19.014;2023-05-07T06:19:13;3.05;;;1.90;;
18659;SDS011;9459;50.254;19.014;2023-05-07T06:21:41;2.45;;;2.00;;
18659;SDS011;9459;50.254;19.014;2023-05-07T06:24:10;2.45;;;2.08;;
18659;SDS011;9459;50.254;19.014;2023-05-07T06:26:38;3.20;;;2.25;;
18659;SDS011;9459;50.254;19.014;2023-05-07T06:29:08;2.92;;;2.40;;
18659;SDS011;9459;50.254;19.014;2023-05-07T06:31:37;3.13;;;2.38;;
18659;SDS011;9459;50.254;19.014;2023-05-07T06:34:06;2.50;;;2.22;;
18659;SDS011;9459;50.254;19.014;2023-05-07T06:36:35;4.93;;;2.40;;
18659;SDS011;9459;50.254;19.014;2023-05-07T06:39:03;2.58;;;2.38;;
18659;SDS011;9459;50.254;19.014;2023-05-07T06:41:32;3.08;;;2.00;;
18659;SDS011;9459;50.254;19.014;2023-05-07T06:44:01;3.45;;;2.42;;
18659;SDS011;9459;50.254;19.014;2023-05-07T06:46:31;3.08;;;2.17;;
18659;SDS011;9459;50.254;19.014;2023-05-07T06:48:59;2.72;;;2.15;;
18659;SDS011;9459;50.254;19.014;2023-05-07T06:51:27;4.20;;;2.28;;
18659;SDS011;9459;50.254;19.014;2023-05-07T06:53:57;3.10;;;2.55;;
18659;SDS011;9459;50.254;19.014;2023-05-07T06:56:28;3.30;;;2.10;;
18659;SDS011;9459;50.254;19.014;2023-05-07T06:58:57;4.07;;;2.17;;
18659;SDS011;9459;50.254;19.014;2023-05-07T07:01:25;3.53;;;2.38;;
18659;SDS011;9459;50.254;19.014;2023-05-07T07:03:55;2.75;;;2.10;;
18659;SDS011;9459;50.254;19.014;2023-05-07T07:06:24;2.72;;;2.25;;
18659;SDS011;9459;50.254;19.014;2023-05-07T07:08:53;3.67;;;2.28;;
18659;SDS011;9459;50.254;19.014;2023-05-07T07:11:21;3.38;;;2.75;;
18659;SDS011;9459;50.254;19.014;2023-05-07T07:13:50;3.03;;;2.42;;
18659;SDS011;9459;50.254;19.014;2023-05-07T07:16:23;4.45;;;2.50;;
18659;SDS011;9459;50.254;19.014;2023-05-07T07:18:52;2.55;;;2.03;;
18659;SDS011;9459;50.254;19.014;2023-05-07T07:21:22;3.67;;;2.35;;
18659;SDS011;9459;50.254;19.014;2023-05-07T07:23:51;2.85;;;1.88;;
18659;SDS011;9459;50.254;19.014;2023-05-07T07:26:20;3.03;;;2.58;;
18659;SDS011;9459;50.254;19.014;2023-05-07T07:28:48;3.83;;;2.63;;
18659;SDS011;9459;50.254;19.014;2023-05-07T07:31:17;3.67;;;2.80;;
18659;SDS011;9459;50.254;19.014;2023-05-07T07:33:45;3.33;;;2.63;;
18659;SDS011;9459;50.254;19.014;2023-05-07T07:36:15;3.22;;;2.08;;
18659;SDS011;9459;50.254;19.014;2023-05-07T07:38:46;3.03;;;2.72;;
18659;SDS011;9459;50.254;19.014;2023-05-07T07:41:14;3.97;;;3.63;;
18659;SDS011;9459;50.254;19.014;2023-05-07T07:43:43;9.82;;;5.80;;
18659;SDS011;9459;50.254;19.014;2023-05-07T07:46:15;40.25;;;19.48;;
18659;SDS011;9459;50.254;19.014;2023-05-07T07:48:44;14.68;;;10.07;;
18659;SDS011;9459;50.254;19.014;2023-05-07T07:51:13;3.63;;;2.85;;
18659;SDS011;9459;50.254;19.014;2023-05-07T07:53:41;16.58;;;13.23;;
18659;SDS011;9459;50.254;19.014;2023-05-07T07:56:11;3.75;;;2.67;;
18659;SDS011;9459;50.254;19.014;2023-05-07T07:58:40;3.17;;;2.42;;
18659;SDS011;9459;50.254;19.014;2023-05-07T08:01:08;7.32;;;5.80;;
18659;SDS011;9459;50.254;19.014;2023-05-07T08:03:39;3.38;;;2.78;;
18659;SDS011;9459;50.254;19.014;2023-05-07T08:06:07;2.47;;;1.65;;
18659;SDS011;9459;50.254;19.014;2023-05-07T08:08:37;1.95;;;1.50;;
18659;SDS011;9459;50.254;19.014;2023-05-07T08:11:05;3.00;;;2.13;;
18659;SDS011;9459;50.254;19.014;2023-05-07T08:13:35;2.88;;;1.50;;
18659;SDS011;9459;50.254;19.014;2023-05-07T08:16:03;4.15;;;3.55;;
18659;SDS011;9459;50.254;19.014;2023-05-07T08:18:32;5.18;;;4.03;;
18659;SDS011;9459;50.254;19.014;2023-05-07T08:21:01;4.68;;;3.92;;
18659;SDS011;9459;50.254;19.014;2023-05-07T08:23:30;4.15;;;3.70;;
18659;SDS011;9459;50.254;19.014;2023-05-07T08:25:58;6.45;;;3.97;;
18659;SDS011;9459;50.254;19.014;2023-05-07T08:28:27;2.67;;;2.08;;
18659;SDS011;9459;50.254;19.014;2023-05-07T08:30:57;2.63;;;2.15;;
18659;SDS011;9459;50.254;19.014;2023-05-07T08:33:27;3.47;;;2.35;;
18659;SDS011;9459;50.254;19.014;2023-05-07T08:35:56;2.70;;;2.00;;
18659;SDS011;9459;50.254;19.014;2023-05-07T08:38:25;2.60;;;2.05;;
18659;SDS011;9459;50.254;19.014;2023-05-07T08:40:53;2.25;;;2.05;;
18659;SDS011;9459;50.254;19.014;2023-05-07T08:43:23;2.67;;;1.92;;
18659;SDS011;9459;50.254;19.014;2023-05-07T08:45:54;5.40;;;3.70;;
18659;SDS011;9459;50.254;19.014;2023-05-07T08:48:25;2.55;;;2.15;;
18659;SDS011;9459;50.254;19.014;2023-05-07T08:50:53;3.63;;;2.78;;
18659;SDS011;9459;50.254;19.014;2023-05-07T08:53:22;3.25;;;2.38;;
18659;SDS011;9459;50.254;19.014;2023-05-07T08:55:50;2.30;;;2.08;;
18659;SDS011;9459;50.254;19.014;2023-05-07T08:58:19;5.63;;;3.97;;
18659;SDS011;9459;50.254;19.014;2023-05-07T09:00:47;4.50;;;2.50;;
18659;SDS011;9459;50.254;19.014;2023-05-07T09:03:18;3.30;;;2.65;;
18659;SDS011;9459;50.254;19.014;2023-05-07T09:05:46;3.50;;;2.60;;
18659;SDS011;9459;50.254;19.014;2023-05-07T09:08:15;14.35;;;8.95;;
18659;SDS011;9459;50.254;19.014;2023-05-07T09:10:44;11.30;;;8.70;;
18659;SDS011;9459;50.254;19.014;2023-05-07T09:13:12;7.82;;;5.50;;
18659;SDS011;9459;50.254;19.014;2023-05-07T09:15:41;10.20;;;9.20;;
18659;SDS011;9459;50.254;19.014;2023-05-07T09:18:12;7.60;;;5.37;;
18659;SDS011;9459;50.254;19.014;2023-05-07T09:20:44;8.07;;;7.25;;
18659;SDS011;9459;50.254;19.014;2023-05-07T09:23:16;7.10;;;6.40;;
18659;SDS011;9459;50.254;19.014;2023-05-07T09:25:45;4.82;;;4.32;;
18659;SDS011;9459;50.254;19.014;2023-05-07T09:28:14;4.75;;;3.67;;
18659;SDS011;9459;50.254;19.014;2023-05-07T09:30:43;6.88;;;4.72;;
18659;SDS011;9459;50.254;19.014;2023-05-07T09:33:11;6.35;;;4.13;;
18659;SDS011;9459;50.254;19.014;2023-05-07T09:35:40;7.50;;;4.40;;
18659;SDS011;9459;50.254;19.014;2023-05-07T09:38:10;5.20;;;3.17;;
18659;SDS011;9459;50.254;19.014;2023-05-07T09:40:39;6.38;;;3.45;;
18659;SDS011;9459;50.254;19.014;2023-05-07T09:43:11;6.00;;;2.80;;
18659;SDS011;9459;50.254;19.014;2023-05-07T09:45:41;4.88;;;3.28;;
18659;SDS011;9459;50.254;19.014;2023-05-07T09:48:10;5.15;;;4.60;;
18659;SDS011;9459;50.254;19.014;2023-05-07T09:50:40;4.05;;;3.60;;
18659;SDS011;9459;50.254;19.014;2023-05-07T09:53:18;4.85;;;3.75;;
18659;SDS011;9459;50.254;19.014;2023-05-07T09:55:46;4.93;;;4.53;;
18659;SDS011;9459;50.254;19.014;2023-05-07T09:58:15;5.10;;;4.35;;
18659;SDS011;9459;50.254;19.014;2023-05-07T10:00:46;5.33;;;4.77;;
18659;SDS011;9459;50.254;19.014;2023-05-07T10:03:15;7.50;;;5.50;;
18659;SDS011;9459;50.254;19.014;2023-05-07T10:05:44;7.03;;;5.72;;
18659;SDS011;9459;50.254;19.014;2023-05-07T10:08:16;6.95;;;6.25;;
18659;SDS011;9459;50.254;19.014;2023-05-07T10:10:48;4.82;;;4.38;;
18659;SDS011;9459;50.254;19.014;2023-05-07T10:13:17;3.60;;;3.00;;
18659;SDS011;9459;50.254;19.014;2023-05-07T10:15:47;4.05;;;3.40;;
18659;SDS011;9459;50.254;19.014;2023-05-07T10:18:16;5.40;;;4.03;;
18659;SDS011;9459;50.254;19.014;2023-05-07T10:20:45;5.05;;;4.30;;
18659;SDS011;9459;50.254;19.014;2023-05-07T10:23:14;6.60;;;4.82;;
18659;SDS011;9459;50.254;19.014;2023-05-07T10:25:48;6.45;;;5.50;;
18659;SDS011;9459;50.254;19.014;2023-05-07T10:28:25;7.47;;;6.05;;
18659;SDS011;9459;50.254;19.014;2023-05-07T10:30:58;8.27;;;4.70;;
18659;SDS011;9459;50.254;19.014;2023-05-07T10:33:36;5.60;;;5.00;;
18659;SDS011;9459;50.254;19.014;2023-05-07T10:36:05;7.93;;;5.65;;
18659;SDS011;9459;50.254;19.014;2023-05-07T10:38:35;7.10;;;6.40;;
18659;SDS011;9459;50.254;19.014;2023-05-07T10:41:04;6.65;;;5.50;;
18659;SDS011;9459;50.254;19.014;2023-05-07T10:43:38;6.60;;;5.85;;
18659;SDS011;9459;50.254;19.014;2023-05-07T10:46:15;7.43;;;6.68;;
18659;SDS011;9459;50.254;19.014;2023-05-07T10:51:36;6.47;;;5.60;;
18659;SDS011;9459;50.254;19.014;2023-05-07T10:54:18;8.07;;;6.40;;
18659;SDS011;9459;50.254;19.014;2023-05-07T10:56:51;7.50;;;6.55;;
18659;SDS011;9459;50.254;19.014;2023-05-07T10:59:30;6.45;;;5.65;;
18659;SDS011;9459;50.254;19.014;2023-05-07T11:02:01;6.10;;;4.85;;
18659;SDS011;9459;50.254;19.014;2023-05-07T11:04:31;6.65;;;5.95;;
18659;SDS011;9459;50.254;19.014;2023-05-07T11:10:04;5.38;;;4.53;;
18659;SDS011;9459;50.254;19.014;2023-05-07T11:15:35;4.35;;;4.03;;
18659;SDS011;9459;50.254;19.014;2023-05-07T11:18:10;3.70;;;3.30;;
18659;SDS011;9459;50.254;19.014;2023-05-07T11:20:44;16.60;;;9.20;;
18659;SDS011;9459;50.254;19.014;2023-05-07T11:26:44;4.78;;;4.28;;
18659;SDS011;9459;50.254;19.014;2023-05-07T11:29:15;4.60;;;4.10;;
18659;SDS011;9459;50.254;19.014;2023-05-07T11:31:48;5.82;;;3.75;;
18659;SDS011;9459;50.254;19.014;2023-05-07T11:34:21;5.00;;;4.47;;
18659;SDS011;9459;50.254;19.014;2023-05-07T11:36:51;5.93;;;4.57;;
18659;SDS011;9459;50.254;19.014;2023-05-07T11:39:26;5.60;;;4.22;;
18659;SDS011;9459;50.254;19.014;2023-05-07T11:41:58;6.38;;;5.70;;
18659;SDS011;9459;50.254;19.014;2023-05-07T11:44:41;7.75;;;7.05;;
18659;SDS011;9459;50.254;19.014;2023-05-07T11:47:10;6.88;;;6.22;;
18659;SDS011;9459;50.254;19.014;2023-05-07T11:49:38;8.27;;;5.45;;
18659;SDS011;9459;50.254;19.014;2023-05-07T11:52:08;6.18;;;5.57;;
18659;SDS011;9459;50.254;19.014;2023-05-07T11:54:36;7.63;;;6.20;;
18659;SDS011;9459;50.254;19.014;2023-05-07T11:57:05;7.55;;;6.57;;
18659;SDS011;9459;50.254;19.014;2023-05-07T11:59:38;6.88;;;6.18;;
18659;SDS011;9459;50.254;19.014;2023-05-07T12:02:09;7.03;;;6.32;;
18659;SDS011;9459;50.254;19.014;2023-05-07T12:04:38;9.45;;;8.00;;
18659;SDS011;9459;50.254;19.014;2023-05-07T12:07:10;10.95;;;7.80;;
18659;SDS011;9459;50.254;19.014;2023-05-07T12:09:40;9.52;;;8.48;;
18659;SDS011;9459;50.254;19.014;2023-05-07T12:12:09;6.30;;;5.68;;
18659;SDS011;9459;50.254;19.014;2023-05-07T12:14:38;8.73;;;7.10;;
18659;SDS011;9459;50.254;19.014;2023-05-07T12:17:07;7.32;;;5.90;;
18659;SDS011;9459;50.254;19.014;2023-05-07T12:19:38;8.35;;;6.22;;
18659;SDS011;9459;50.254;19.014;2023-05-07T12:22:08;5.20;;;4.53;;
18659;SDS011;9459;50.254;19.014;2023-05-07T12:24:44;5.32;;;4.57;;
18659;SDS011;9459;50.254;19.014;2023-05-07T12:27:13;7.88;;;4.55;;
18659;SDS011;9459;50.254;19.014;2023-05-07T12:29:43;4.18;;;3.78;;
18659;SDS011;9459;50.254;19.014;2023-05-07T12:32:13;7.43;;;5.57;;
18659;SDS011;9459;50.254;19.014;2023-05-07T12:34:44;7.10;;;5.00;;
18659;SDS011;9459;50.254;19.014;2023-05-07T12:37:13;9.63;;;7.38;;
18659;SDS011;9459;50.254;19.014;2023-05-07T12:39:47;9.95;;;7.80;;
18659;SDS011;9459;50.254;19.014;2023-05-07T12:42:16;12.88;;;8.65;;
18659;SDS011;9459;50.254;19.014;2023-05-07T12:44:45;7.22;;;6.20;;
18659;SDS011;9459;50.254;19.014;2023-05-07T12:47:14;7.60;;;5.50;;
18659;SDS011;9459;50.254;19.014;2023-05-07T12:49:44;5.82;;;4.55;;
18659;SDS011;9459;50.254;19.014;2023-05-07T12:52:13;5.55;;;5.03;;
18659;SDS011;9459;50.254;19.014;2023-05-07T12:54:42;7.28;;;5.85;;
18659;SDS011;9459;50.254;19.014;2023-05-07T12:57:12;6.55;;;5.18;;
18659;SDS011;9459;50.254;19.014;2023-05-07T12:59:41;5.93;;;4.15;;
18659;SDS011;9459;50.254;19.014;2023-05-07T13:02:09;8.38;;;4.45;;
18659;SDS011;9459;50.254;19.014;2023-05-07T13:04:38;5.82;;;5.13;;
18659;SDS011;9459;50.254;19.014;2023-05-07T13:07:08;6.70;;;4.78;;
18659;SDS011;9459;50.254;19.014;2023-05-07T13:09:36;8.25;;;6.78;;
18659;SDS011;9459;50.254;19.014;2023-05-07T13:12:05;4.63;;;4.03;;
18659;SDS011;9459;50.254;19.014;2023-05-07T13:14:33;6.80;;;5.35;;
18659;SDS011;9459;50.254;19.014;2023-05-07T13:17:02;4.93;;;4.03;;
18659;SDS011;9459;50.254;19.014;2023-05-07T13:19:30;5.90;;;4.38;;
18659;SDS011;9459;50.254;19.014;2023-05-07T13:21:59;5.43;;;4.30;;
18659;SDS011;9459;50.254;19.014;2023-05-07T13:24:28;5.30;;;4.45;;
18659;SDS011;9459;50.254;19.014;2023-05-07T13:26:57;6.03;;;4.90;;
18659;SDS011;9459;50.254;19.014;2023-05-07T13:29:25;6.70;;;5.35;;
18659;SDS011;9459;50.254;19.014;2023-05-07T13:31:56;6.50;;;4.82;;
18659;SDS011;9459;50.254;19.014;2023-05-07T13:34:25;6.85;;;5.20;;
18659;SDS011;9459;50.254;19.014;2023-05-07T13:36:53;24.10;;;15.75;;
18659;SDS011;9459;50.254;19.014;2023-05-07T13:39:22;21.50;;;12.43;;
18659;SDS011;9459;50.254;19.014;2023-05-07T13:41:52;10.65;;;5.30;;
18659;SDS011;9459;50.254;19.014;2023-05-07T13:44:20;10.20;;;6.85;;
18659;SDS011;9459;50.254;19.014;2023-05-07T13:46:48;6.68;;;5.30;;
18659;SDS011;9459;50.254;19.014;2023-05-07T13:49:18;17.88;;;12.75;;
18659;SDS011;9459;50.254;19.014;2023-05-07T13:51:46;7.45;;;4.85;;
18659;SDS011;9459;50.254;19.014;2023-05-07T13:54:15;11.15;;;7.78;;
18659;SDS011;9459;50.254;19.014;2023-05-07T13:56:43;8.70;;;5.30;;
18659;SDS011;9459;50.254;19.014;2023-05-07T13:59:13;10.38;;;6.43;;
18659;SDS011;9459;50.254;19.014;2023-05-07T14:01:42;11.65;;;6.45;;
18659;SDS011;9459;50.254;19.014;2023-05-07T14:04:14;13.80;;;10.20;;
18659;SDS011;9459;50.254;19.014;2023-05-07T14:06:43;12.90;;;9.38;;
18659;SDS011;9459;50.254;19.014;2023-05-07T14:09:11;13.38;;;9.07;;
18659;SDS011;9459;50.254;19.014;2023-05-07T14:11:40;9.40;;;6.35;;
18659;SDS011;9459;50.254;19.014;2023-05-07T14:14:09;7.40;;;4.45;;
18659;SDS011;9459;50.254;19.014;2023-05-07T14:16:40;4.60;;;3.95;;
18659;SDS011;9459;50.254;19.014;2023-05-07T14:19:08;7.00;;;5.32;;
18659;SDS011;9459;50.254;19.014;2023-05-07T14:21:36;10.43;;;7.80;;
18659;SDS011;9459;50.254;19.014;2023-05-07T14:24:06;8.25;;;6.88;;
18659;SDS011;9459;50.254;19.014;2023-05-07T14:26:35;25.80;;;19.13;;
18659;SDS011;9459;50.254;19.014;2023-05-07T14:29:03;28.75;;;22.35;;
18659;SDS011;9459;50.254;19.014;2023-05-07T14:31:31;32.28;;;19.60;;
18659;SDS011;9459;50.254;19.014;2023-05-07T14:34:02;20.55;;;14.95;;
18659;SDS011;9459;50.254;19.014;2023-05-07T14:36:31;19.70;;;13.65;;
18659;SDS011;9459;50.254;19.014;2023-05-07T14:38:59;15.35;;;11.15;;
18659;SDS011;9459;50.254;19.014;2023-05-07T14:41:28;19.33;;;11.80;;
18659;SDS011;9459;50.254;19.014;2023-05-07T14:43:56;30.00;;;15.85;;
18659;SDS011;9459;50.254;19.014;2023-05-07T14:46:25;17.23;;;10.60;;
18659;SDS011;9459;50.254;19.014;2023-05-07T14:48:54;6.18;;;4.88;;
18659;SDS011;9459;50.254;19.014;2023-05-07T14:51:24;7.97;;;5.15;;
18659;SDS011;9459;50.254;19.014;2023-05-07T14:53:54;8.35;;;5.63;;
18659;SDS011;9459;50.254;19.014;2023-05-07T14:56:23;9.38;;;5.78;;
18659;SDS011;9459;50.254;19.014;2023-05-07T14:58:52;6.75;;;5.53;;
18659;SDS011;9459;50.254;19.014;2023-05-07T15:01:20;7.57;;;6.50;;
18659;SDS011;9459;50.254;19.014;2023-05-07T15:03:49;10.00;;;7.10;;
18659;SDS011;9459;50.254;19.014;2023-05-07T15:06:18;13.55;;;8.80;;
18659;SDS011;9459;50.254;19.014;2023-05-07T15:08:47;10.45;;;7.30;;
18659;SDS011;9459;50.254;19.014;2023-05-07T15:11:16;10.70;;;6.57;;